sensor_id;sensor_type;location;lat;lon;timestamp;temperature;humidity
3275;DHT22;1649;53.672;10.064;2023-03-23T00:01:56;10.00;99.90
3275;DHT22;1649;53.672;10.064;2023-03-23T00:04:21;10.00;99.90
3275;DHT22;1649;53.672;10.064;2023-03-23T00:06:48;10.00;99.90
3275;DHT22;1649;53.672;10.064;2023-03-23T00:09:14;10.00;99.90
3275;DHT22;1649;53.672;10.064;2023-03-23T00:11:41;10.00;99.90
3275;DHT22;1649;53.672;10.064;2023-03-23T00:14:07;10.00;99.90
3275;DHT22;1649;53.672;10.064;2023-03-23T00:16:39;9.90;99.90
3275;DHT22;1649;53.672;10.064;2023-03-23T00:19:11;9.90;99.90
3275;DHT22;1649;53.672;10.064;2023-03-23T00:21:41;9.90;99.90
3275;DHT22;1649;53.672;10.064;2023-03-23T00:26:39;9.90;99.90
3275;DHT22;1649;53.672;10.064;2023-03-23T00:29:13;9.90;99.90
3275;DHT22;1649;53.672;10.064;2023-03-23T00:31:39;9.90;99.90
3275;DHT22;1649;53.672;10.064;2023-03-23T00:34:05;9.90;99.90
3275;DHT22;1649;53.672;10.064;2023-03-23T00:36:32;9.90;99.90
3275;DHT22;1649;53.672;10.064;2023-03-23T00:39:00;9.90;99.90
3275;DHT22;1649;53.672;10.064;2023-03-23T00:41:27;9.90;99.90
3275;DHT22;1649;53.672;10.064;2023-03-23T00:43:55;9.90;99.90
3275;DHT22;1649;53.672;10.064;2023-03-23T00:46:21;9.90;99.90
3275;DHT22;1649;53.672;10.064;2023-03-23T00:48:47;9.90;99.90
3275;DHT22;1649;53.672;10.064;2023-03-23T00:51:13;9.90;99.90
3275;DHT22;1649;53.672;10.064;2023-03-23T00:53:39;10.00;99.90
3275;DHT22;1649;53.672;10.064;2023-03-23T00:56:07;10.00;99.90
3275;DHT22;1649;53.672;10.064;2023-03-23T00:58:33;10.00;99.90
3275;DHT22;1649;53.672;10.064;2023-03-23T01:00:58;10.00;99.90
3275;DHT22;1649;53.672;10.064;2023-03-23T01:03:24;10.00;99.90
3275;DHT22;1649;53.672;10.064;2023-03-23T01:05:51;10.00;99.90
3275;DHT22;1649;53.672;10.064;2023-03-23T01:08:17;10.00;99.90
3275;DHT22;1649;53.672;10.064;2023-03-23T01:10:44;10.00;99.90
3275;DHT22;1649;53.672;10.064;2023-03-23T01:13:10;10.00;99.90
3275;DHT22;1649;53.672;10.064;2023-03-23T01:15:36;10.00;99.90
3275;DHT22;1649;53.672;10.064;2023-03-23T01:18:02;10.00;99.90
3275;DHT22;1649;53.672;10.064;2023-03-23T01:20:28;10.00;99.90
3275;DHT22;1649;53.672;10.064;2023-03-23T01:22:56;10.00;99.90
3275;DHT22;1649;53.672;10.064;2023-03-23T01:25:26;10.00;99.90
3275;DHT22;1649;53.672;10.064;2023-03-23T01:27:52;10.00;99.90
3275;DHT22;1649;53.672;10.064;2023-03-23T01:30:17;10.00;99.90
3275;DHT22;1649;53.672;10.064;2023-03-23T01:32:43;10.00;99.90
3275;DHT22;1649;53.672;10.064;2023-03-23T01:35:08;9.90;99.90
3275;DHT22;1649;53.672;10.064;2023-03-23T01:37:35;10.00;99.90
3275;DHT22;1649;53.672;10.064;2023-03-23T01:40:02;10.00;99.90
3275;DHT22;1649;53.672;10.064;2023-03-23T01:42:34;10.00;99.90
3275;DHT22;1649;53.672;10.064;2023-03-23T01:45:28;10.00;99.90
3275;DHT22;1649;53.672;10.064;2023-03-23T01:48:04;10.00;99.90
3275;DHT22;1649;53.672;10.064;2023-03-23T01:50:36;10.00;99.90
3275;DHT22;1649;53.672;10.064;2023-03-23T01:53:05;10.00;99.90
3275;DHT22;1649;53.672;10.064;2023-03-23T01:55:34;10.00;99.90
3275;DHT22;1649;53.672;10.064;2023-03-23T01:58:02;10.00;99.90
3275;DHT22;1649;53.672;10.064;2023-03-23T02:00:27;10.00;99.90
3275;DHT22;1649;53.672;10.064;2023-03-23T02:02:54;10.00;99.90
3275;DHT22;1649;53.672;10.064;2023-03-23T02:05:30;10.00;99.90
3275;DHT22;1649;53.672;10.064;2023-03-23T02:07:59;10.00;99.90
3275;DHT22;1649;53.672;10.064;2023-03-23T02:10:31;10.00;99.90
3275;DHT22;1649;53.672;10.064;2023-03-23T02:12:59;10.10;99.90
3275;DHT22;1649;53.672;10.064;2023-03-23T02:15:29;10.00;99.90
3275;DHT22;1649;53.672;10.064;2023-03-23T02:21:13;10.00;99.90
3275;DHT22;1649;53.672;10.064;2023-03-23T02:23:58;10.00;99.90
3275;DHT22;1649;53.672;10.064;2023-03-23T02:26:38;10.00;99.90
3275;DHT22;1649;53.672;10.064;2023-03-23T02:29:13;10.00;99.90
3275;DHT22;1649;53.672;10.064;2023-03-23T02:34:41;10.10;99.90
3275;DHT22;1649;53.672;10.064;2023-03-23T02:37:12;10.00;99.90
3275;DHT22;1649;53.672;10.064;2023-03-23T02:39:49;10.10;99.90
3275;DHT22;1649;53.672;10.064;2023-03-23T02:42:20;10.10;99.90
3275;DHT22;1649;53.672;10.064;2023-03-23T02:44:48;10.10;99.90
3275;DHT22;1649;53.672;10.064;2023-03-23T02:47:19;10.10;99.90
3275;DHT22;1649;53.672;10.064;2023-03-23T02:49:48;10.10;99.90
3275;DHT22;1649;53.672;10.064;2023-03-23T02:52:20;10.10;99.90
3275;DHT22;1649;53.672;10.064;2023-03-23T02:54:48;10.10;99.90
3275;DHT22;1649;53.672;10.064;2023-03-23T02:57:15;10.20;99.90
3275;DHT22;1649;53.672;10.064;2023-03-23T02:59:41;10.10;99.90
3275;DHT22;1649;53.672;10.064;2023-03-23T03:02:13;10.20;99.90
3275;DHT22;1649;53.672;10.064;2023-03-23T03:04:41;10.20;99.90
3275;DHT22;1649;53.672;10.064;2023-03-23T03:07:25;10.20;99.90
3275;DHT22;1649;53.672;10.064;2023-03-23T03:10:06;10.20;99.90
3275;DHT22;1649;53.672;10.064;2023-03-23T03:12:41;10.20;99.90
3275;DHT22;1649;53.672;10.064;2023-03-23T03:20:38;10.20;99.90
3275;DHT22;1649;53.672;10.064;2023-03-23T03:23:06;10.20;99.90
3275;DHT22;1649;53.672;10.064;2023-03-23T03:25:33;10.20;99.90
3275;DHT22;1649;53.672;10.064;2023-03-23T03:27:59;10.20;99.90
3275;DHT22;1649;53.672;10.064;2023-03-23T03:30:28;10.20;99.90
3275;DHT22;1649;53.672;10.064;2023-03-23T03:32:56;10.20;99.90
3275;DHT22;1649;53.672;10.064;2023-03-23T03:35:23;10.20;99.90
3275;DHT22;1649;53.672;10.064;2023-03-23T03:37:49;10.20;99.90
3275;DHT22;1649;53.672;10.064;2023-03-23T03:40:18;10.20;99.90
3275;DHT22;1649;53.672;10.064;2023-03-23T03:42:44;10.20;99.90
3275;DHT22;1649;53.672;10.064;2023-03-23T03:45:16;10.20;99.90
3275;DHT22;1649;53.672;10.064;2023-03-23T03:47:42;10.20;99.90
3275;DHT22;1649;53.672;10.064;2023-03-23T03:50:08;10.20;99.90
3275;DHT22;1649;53.672;10.064;2023-03-23T03:52:34;10.20;99.90
3275;DHT22;1649;53.672;10.064;2023-03-23T03:55:00;10.20;99.90
3275;DHT22;1649;53.672;10.064;2023-03-23T03:57:26;10.30;99.90
3275;DHT22;1649;53.672;10.064;2023-03-23T03:59:51;10.30;99.90
3275;DHT22;1649;53.672;10.064;2023-03-23T04:02:18;10.30;99.90
3275;DHT22;1649;53.672;10.064;2023-03-23T04:04:46;10.30;99.90
3275;DHT22;1649;53.672;10.064;2023-03-23T04:07:12;10.30;99.90
3275;DHT22;1649;53.672;10.064;2023-03-23T04:09:42;10.30;99.90
3275;DHT22;1649;53.672;10.064;2023-03-23T04:12:08;10.30;99.90
3275;DHT22;1649;53.672;10.064;2023-03-23T04:14:34;10.40;99.90
3275;DHT22;1649;53.672;10.064;2023-03-23T04:17:00;10.40;99.90
3275;DHT22;1649;53.672;10.064;2023-03-23T04:19:25;10.40;99.90
3275;DHT22;1649;53.672;10.064;2023-03-23T04:21:53;10.40;99.90
3275;DHT22;1649;53.672;10.064;2023-03-23T04:24:21;10.50;99.90
3275;DHT22;1649;53.672;10.064;2023-03-23T04:26:48;10.50;99.90
3275;DHT22;1649;53.672;10.064;2023-03-23T04:29:14;10.50;99.90
3275;DHT22;1649;53.672;10.064;2023-03-23T04:31:41;10.50;99.90
3275;DHT22;1649;53.672;10.064;2023-03-23T04:34:10;10.50;99.90
3275;DHT22;1649;53.672;10.064;2023-03-23T04:36:38;10.50;99.90
3275;DHT22;1649;53.672;10.064;2023-03-23T04:39:04;10.50;99.90
3275;DHT22;1649;53.672;10.064;2023-03-23T04:41:32;10.50;99.90
3275;DHT22;1649;53.672;10.064;2023-03-23T04:43:57;10.50;99.90
3275;DHT22;1649;53.672;10.064;2023-03-23T04:46:28;10.50;99.90
3275;DHT22;1649;53.672;10.064;2023-03-23T04:48:54;10.50;99.90
3275;DHT22;1649;53.672;10.064;2023-03-23T04:51:21;10.50;99.90
3275;DHT22;1649;53.672;10.064;2023-03-23T04:53:46;10.50;99.90
3275;DHT22;1649;53.672;10.064;2023-03-23T04:56:12;10.50;99.90
3275;DHT22;1649;53.672;10.064;2023-03-23T04:58:39;10.50;99.90
3275;DHT22;1649;53.672;10.064;2023-03-23T05:01:06;10.40;99.90
3275;DHT22;1649;53.672;10.064;2023-03-23T05:03:31;10.40;99.90
3275;DHT22;1649;53.672;10.064;2023-03-23T05:05:57;10.50;99.90
3275;DHT22;1649;53.672;10.064;2023-03-23T05:08:23;10.40;99.90
3275;DHT22;1649;53.672;10.064;2023-03-23T05:10:57;10.40;99.90
3275;DHT22;1649;53.672;10.064;2023-03-23T05:13:23;10.40;99.90
3275;DHT22;1649;53.672;10.064;2023-03-23T05:15:48;10.40;99.90
3275;DHT22;1649;53.672;10.064;2023-03-23T05:18:15;10.50;99.90
3275;DHT22;1649;53.672;10.064;2023-03-23T05:20:41;10.40;99.90
3275;DHT22;1649;53.672;10.064;2023-03-23T05:23:08;10.40;99.90
3275;DHT22;1649;53.672;10.064;2023-03-23T05:25:35;10.50;99.90
3275;DHT22;1649;53.672;10.064;2023-03-23T05:28:06;10.50;99.90
3275;DHT22;1649;53.672;10.064;2023-03-23T05:30:33;10.50;99.90
3275;DHT22;1649;53.672;10.064;2023-03-23T05:32:59;10.50;99.90
3275;DHT22;1649;53.672;10.064;2023-03-23T05:35:25;10.50;99.90
3275;DHT22;1649;53.672;10.064;2023-03-23T05:37:50;10.60;99.90
3275;DHT22;1649;53.672;10.064;2023-03-23T05:40:19;10.60;99.90
3275;DHT22;1649;53.672;10.064;2023-03-23T05:42:45;10.60;99.90
3275;DHT22;1649;53.672;10.064;2023-03-23T05:45:12;10.60;99.90
3275;DHT22;1649;53.672;10.064;2023-03-23T05:47:41;10.60;99.90
3275;DHT22;1649;53.672;10.064;2023-03-23T05:50:08;10.60;99.90
3275;DHT22;1649;53.672;10.064;2023-03-23T05:52:38;10.60;99.90
3275;DHT22;1649;53.672;10.064;2023-03-23T05:55:04;10.60;99.90
3275;DHT22;1649;53.672;10.064;2023-03-23T05:57:30;10.40;99.90
3275;DHT22;1649;53.672;10.064;2023-03-23T05:59:56;10.60;99.90
3275;DHT22;1649;53.672;10.064;2023-03-23T06:02:23;10.50;99.90
3275;DHT22;1649;53.672;10.064;2023-03-23T06:04:50;10.60;99.90
3275;DHT22;1649;53.672;10.064;2023-03-23T06:07:15;10.50;99.90
3275;DHT22;1649;53.672;10.064;2023-03-23T06:09:41;10.60;99.90
3275;DHT22;1649;53.672;10.064;2023-03-23T06:12:08;10.50;99.90
3275;DHT22;1649;53.672;10.064;2023-03-23T06:14:35;10.50;99.90
3275;DHT22;1649;53.672;10.064;2023-03-23T06:17:00;10.50;99.90
3275;DHT22;1649;53.672;10.064;2023-03-23T06:19:26;10.50;99.90
3275;DHT22;1649;53.672;10.064;2023-03-23T06:21:56;10.50;99.90
3275;DHT22;1649;53.672;10.064;2023-03-23T06:24:22;10.50;99.90
3275;DHT22;1649;53.672;10.064;2023-03-23T06:26:48;10.40;99.90
3275;DHT22;1649;53.672;10.064;2023-03-23T06:29:15;10.40;99.90
3275;DHT22;1649;53.672;10.064;2023-03-23T06:31:43;10.40;99.90
3275;DHT22;1649;53.672;10.064;2023-03-23T06:34:10;10.40;99.90
3275;DHT22;1649;53.672;10.064;2023-03-23T06:36:36;10.40;99.90
3275;DHT22;1649;53.672;10.064;2023-03-23T06:39:03;10.50;99.90
3275;DHT22;1649;53.672;10.064;2023-03-23T06:41:32;10.70;99.90
3275;DHT22;1649;53.672;10.064;2023-03-23T06:43:59;10.70;99.90
3275;DHT22;1649;53.672;10.064;2023-03-23T06:46:24;10.80;99.90
3275;DHT22;1649;53.672;10.064;2023-03-23T06:48:50;10.90;99.90
3275;DHT22;1649;53.672;10.064;2023-03-23T06:51:17;11.00;99.90
3275;DHT22;1649;53.672;10.064;2023-03-23T06:53:43;11.10;99.90
3275;DHT22;1649;53.672;10.064;2023-03-23T06:56:09;11.20;99.90
3275;DHT22;1649;53.672;10.064;2023-03-23T06:58:34;11.10;99.90
3275;DHT22;1649;53.672;10.064;2023-03-23T07:01:00;11.20;99.90
3275;DHT22;1649;53.672;10.064;2023-03-23T07:03:26;11.20;99.90
3275;DHT22;1649;53.672;10.064;2023-03-23T07:05:53;11.30;99.90
3275;DHT22;1649;53.672;10.064;2023-03-23T07:08:19;11.30;99.90
3275;DHT22;1649;53.672;10.064;2023-03-23T07:10:47;11.30;99.90
3275;DHT22;1649;53.672;10.064;2023-03-23T07:13:13;11.30;99.90
3275;DHT22;1649;53.672;10.064;2023-03-23T07:15:39;11.30;99.90
3275;DHT22;1649;53.672;10.064;2023-03-23T07:18:04;11.40;99.90
3275;DHT22;1649;53.672;10.064;2023-03-23T07:20:30;11.40;99.90
3275;DHT22;1649;53.672;10.064;2023-03-23T07:22:55;11.50;99.90
3275;DHT22;1649;53.672;10.064;2023-03-23T07:25:21;11.50;99.90
3275;DHT22;1649;53.672;10.064;2023-03-23T07:27:47;11.60;99.90
3275;DHT22;1649;53.672;10.064;2023-03-23T07:30:13;11.50;99.90
3275;DHT22;1649;53.672;10.064;2023-03-23T07:32:40;11.50;99.90
3275;DHT22;1649;53.672;10.064;2023-03-23T07:35:06;11.50;99.90
3275;DHT22;1649;53.672;10.064;2023-03-23T07:37:32;11.50;99.90
3275;DHT22;1649;53.672;10.064;2023-03-23T07:39:58;11.60;99.90
3275;DHT22;1649;53.672;10.064;2023-03-23T07:42:23;11.60;99.90
3275;DHT22;1649;53.672;10.064;2023-03-23T07:44:49;11.60;99.90
3275;DHT22;1649;53.672;10.064;2023-03-23T07:47:14;11.50;99.90
3275;DHT22;1649;53.672;10.064;2023-03-23T07:49:40;11.40;99.90
3275;DHT22;1649;53.672;10.064;2023-03-23T07:52:06;11.20;99.90
3275;DHT22;1649;53.672;10.064;2023-03-23T07:54:31;11.00;99.90
3275;DHT22;1649;53.672;10.064;2023-03-23T07:56:56;10.90;99.90
3275;DHT22;1649;53.672;10.064;2023-03-23T07:59:22;10.80;99.90
3275;DHT22;1649;53.672;10.064;2023-03-23T08:01:48;10.70;99.90
3275;DHT22;1649;53.672;10.064;2023-03-23T08:04:13;10.70;99.90
3275;DHT22;1649;53.672;10.064;2023-03-23T08:06:40;10.60;99.90
3275;DHT22;1649;53.672;10.064;2023-03-23T08:09:07;10.40;99.90
3275;DHT22;1649;53.672;10.064;2023-03-23T08:11:34;10.30;99.90
3275;DHT22;1649;53.672;10.064;2023-03-23T08:14:00;10.10;99.90
3275;DHT22;1649;53.672;10.064;2023-03-23T08:16:26;9.90;99.90
3275;DHT22;1649;53.672;10.064;2023-03-23T08:18:51;9.70;99.90
3275;DHT22;1649;53.672;10.064;2023-03-23T08:21:17;9.50;99.90
3275;DHT22;1649;53.672;10.064;2023-03-23T08:23:42;9.40;99.90
3275;DHT22;1649;53.672;10.064;2023-03-23T08:26:09;9.40;99.90
3275;DHT22;1649;53.672;10.064;2023-03-23T08:28:35;9.40;99.90
3275;DHT22;1649;53.672;10.064;2023-03-23T08:31:10;9.30;99.90
3275;DHT22;1649;53.672;10.064;2023-03-23T08:33:36;9.30;99.90
3275;DHT22;1649;53.672;10.064;2023-03-23T08:36:03;9.30;99.90
3275;DHT22;1649;53.672;10.064;2023-03-23T08:38:29;9.40;99.90
3275;DHT22;1649;53.672;10.064;2023-03-23T08:41:02;9.40;99.90
3275;DHT22;1649;53.672;10.064;2023-03-23T08:43:30;9.50;99.90
3275;DHT22;1649;53.672;10.064;2023-03-23T08:45:55;9.60;99.90
3275;DHT22;1649;53.672;10.064;2023-03-23T08:48:21;9.60;99.90
3275;DHT22;1649;53.672;10.064;2023-03-23T08:50:49;9.60;99.90
3275;DHT22;1649;53.672;10.064;2023-03-23T08:53:15;9.70;99.90
3275;DHT22;1649;53.672;10.064;2023-03-23T08:55:41;9.90;99.90
3275;DHT22;1649;53.672;10.064;2023-03-23T08:58:08;10.20;99.90
3275;DHT22;1649;53.672;10.064;2023-03-23T09:00:33;10.50;99.90
3275;DHT22;1649;53.672;10.064;2023-03-23T09:02:59;11.00;99.90
3275;DHT22;1649;53.672;10.064;2023-03-23T09:05:26;11.10;99.90
3275;DHT22;1649;53.672;10.064;2023-03-23T09:07:55;11.20;99.90
3275;DHT22;1649;53.672;10.064;2023-03-23T09:10:22;11.30;99.90
3275;DHT22;1649;53.672;10.064;2023-03-23T09:12:49;11.30;99.90
3275;DHT22;1649;53.672;10.064;2023-03-23T09:15:18;11.40;99.90
3275;DHT22;1649;53.672;10.064;2023-03-23T09:17:45;11.50;99.90
3275;DHT22;1649;53.672;10.064;2023-03-23T09:20:13;11.50;99.90
3275;DHT22;1649;53.672;10.064;2023-03-23T09:22:40;11.50;99.90
3275;DHT22;1649;53.672;10.064;2023-03-23T09:25:08;11.50;99.90
3275;DHT22;1649;53.672;10.064;2023-03-23T09:27:34;11.50;99.90
3275;DHT22;1649;53.672;10.064;2023-03-23T09:30:05;11.50;99.90
3275;DHT22;1649;53.672;10.064;2023-03-23T09:32:33;11.60;99.90
3275;DHT22;1649;53.672;10.064;2023-03-23T09:35:01;11.70;99.90
3275;DHT22;1649;53.672;10.064;2023-03-23T09:37:27;11.70;99.90
3275;DHT22;1649;53.672;10.064;2023-03-23T09:39:53;11.60;99.90
3275;DHT22;1649;53.672;10.064;2023-03-23T09:42:47;11.60;99.90
3275;DHT22;1649;53.672;10.064;2023-03-23T09:45:26;11.80;99.90
3275;DHT22;1649;53.672;10.064;2023-03-23T09:48:10;11.90;99.90
3275;DHT22;1649;53.672;10.064;2023-03-23T09:50:41;12.30;99.90
3275;DHT22;1649;53.672;10.064;2023-03-23T09:53:22;12.70;99.90
3275;DHT22;1649;53.672;10.064;2023-03-23T09:55:49;13.00;99.90
3275;DHT22;1649;53.672;10.064;2023-03-23T09:58:24;13.20;99.90
3275;DHT22;1649;53.672;10.064;2023-03-23T10:03:31;13.60;99.90
3275;DHT22;1649;53.672;10.064;2023-03-23T10:05:59;13.40;99.90
3275;DHT22;1649;53.672;10.064;2023-03-23T10:08:29;13.30;99.90
3275;DHT22;1649;53.672;10.064;2023-03-23T10:11:23;13.60;99.90
3275;DHT22;1649;53.672;10.064;2023-03-23T10:19:27;14.00;99.90
3275;DHT22;1649;53.672;10.064;2023-03-23T10:22:03;14.00;99.90
3275;DHT22;1649;53.672;10.064;2023-03-23T10:24:36;14.20;99.90
3275;DHT22;1649;53.672;10.064;2023-03-23T10:29:54;15.40;99.90
3275;DHT22;1649;53.672;10.064;2023-03-23T10:32:43;15.60;99.90
3275;DHT22;1649;53.672;10.064;2023-03-23T10:35:25;15.70;99.90
3275;DHT22;1649;53.672;10.064;2023-03-23T10:37:59;15.50;99.90
3275;DHT22;1649;53.672;10.064;2023-03-23T10:40:29;15.70;99.90
3275;DHT22;1649;53.672;10.064;2023-03-23T10:42:56;15.60;99.90
3275;DHT22;1649;53.672;10.064;2023-03-23T10:45:26;15.40;99.90
3275;DHT22;1649;53.672;10.064;2023-03-23T10:50:29;15.10;99.90
3275;DHT22;1649;53.672;10.064;2023-03-23T10:52:57;14.90;99.90
3275;DHT22;1649;53.672;10.064;2023-03-23T10:55:25;14.90;99.90
3275;DHT22;1649;53.672;10.064;2023-03-23T10:58:10;14.70;99.90
3275;DHT22;1649;53.672;10.064;2023-03-23T11:00:44;14.30;99.90
3275;DHT22;1649;53.672;10.064;2023-03-23T11:05:42;14.00;99.90
3275;DHT22;1649;53.672;10.064;2023-03-23T11:08:16;13.90;99.90
3275;DHT22;1649;53.672;10.064;2023-03-23T11:10:56;13.80;99.90
3275;DHT22;1649;53.672;10.064;2023-03-23T11:13:29;13.80;99.90
3275;DHT22;1649;53.672;10.064;2023-03-23T11:15:55;13.90;99.90
3275;DHT22;1649;53.672;10.064;2023-03-23T11:18:23;14.10;99.90
3275;DHT22;1649;53.672;10.064;2023-03-23T11:20:53;14.10;99.90
3275;DHT22;1649;53.672;10.064;2023-03-23T11:23:27;14.00;99.90
3275;DHT22;1649;53.672;10.064;2023-03-23T11:26:13;14.00;99.90
3275;DHT22;1649;53.672;10.064;2023-03-23T11:31:39;14.10;99.90
3275;DHT22;1649;53.672;10.064;2023-03-23T11:34:32;14.10;99.90
3275;DHT22;1649;53.672;10.064;2023-03-23T11:39:30;13.70;99.90
3275;DHT22;1649;53.672;10.064;2023-03-23T11:42:19;13.80;99.90
3275;DHT22;1649;53.672;10.064;2023-03-23T11:44:45;13.90;99.90
3275;DHT22;1649;53.672;10.064;2023-03-23T11:47:33;14.10;99.90
3275;DHT22;1649;53.672;10.064;2023-03-23T11:50:18;14.10;99.90
3275;DHT22;1649;53.672;10.064;2023-03-23T11:56:23;13.90;99.90
3275;DHT22;1649;53.672;10.064;2023-03-23T11:58:23;14.00;99.90
3275;DHT22;1649;53.672;10.064;2023-03-23T12:03:19;14.30;99.90
3275;DHT22;1649;53.672;10.064;2023-03-23T12:05:59;14.10;99.90
3275;DHT22;1649;53.672;10.064;2023-03-23T12:14:19;13.70;99.90
3275;DHT22;1649;53.672;10.064;2023-03-23T12:19:28;13.40;99.90
3275;DHT22;1649;53.672;10.064;2023-03-23T12:22:18;13.40;99.90
3275;DHT22;1649;53.672;10.064;2023-03-23T12:25:05;13.50;99.90
3275;DHT22;1649;53.672;10.064;2023-03-23T12:30:20;13.40;99.90
3275;DHT22;1649;53.672;10.064;2023-03-23T12:32:54;13.30;99.90
3275;DHT22;1649;53.672;10.064;2023-03-23T12:40:53;12.90;99.90
3275;DHT22;1649;53.672;10.064;2023-03-23T12:48:52;13.10;99.90
3275;DHT22;1649;53.672;10.064;2023-03-23T12:51:37;13.20;99.90
3275;DHT22;1649;53.672;10.064;2023-03-23T12:57:13;13.30;99.90
3275;DHT22;1649;53.672;10.064;2023-03-23T13:00:14;13.40;99.90
3275;DHT22;1649;53.672;10.064;2023-03-23T13:10:48;13.30;99.90
3275;DHT22;1649;53.672;10.064;2023-03-23T13:13:41;13.30;99.90
3275;DHT22;1649;53.672;10.064;2023-03-23T13:16:39;13.60;99.90
3275;DHT22;1649;53.672;10.064;2023-03-23T13:19:17;14.00;99.90
3275;DHT22;1649;53.672;10.064;2023-03-23T13:21:52;14.30;99.90
3275;DHT22;1649;53.672;10.064;2023-03-23T13:24:25;14.20;99.90
3275;DHT22;1649;53.672;10.064;2023-03-23T13:26:51;14.00;99.90
3275;DHT22;1649;53.672;10.064;2023-03-23T13:29:21;14.00;99.90
3275;DHT22;1649;53.672;10.064;2023-03-23T13:31:50;14.20;99.90
3275;DHT22;1649;53.672;10.064;2023-03-23T13:34:24;14.20;99.90
3275;DHT22;1649;53.672;10.064;2023-03-23T13:37:02;14.10;99.90
3275;DHT22;1649;53.672;10.064;2023-03-23T13:39:35;14.10;99.90
3275;DHT22;1649;53.672;10.064;2023-03-23T13:49:51;13.60;99.90
3275;DHT22;1649;53.672;10.064;2023-03-23T13:52:36;13.50;99.90
3275;DHT22;1649;53.672;10.064;2023-03-23T13:57:54;12.70;99.90
3275;DHT22;1649;53.672;10.064;2023-03-23T14:08:38;9.40;99.90
3275;DHT22;1649;53.672;10.064;2023-03-23T14:11:15;9.10;99.90
3275;DHT22;1649;53.672;10.064;2023-03-23T14:16:41;9.00;99.90
3275;DHT22;1649;53.672;10.064;2023-03-23T14:19:21;9.00;99.90
3275;DHT22;1649;53.672;10.064;2023-03-23T14:21:55;9.10;99.90
3275;DHT22;1649;53.672;10.064;2023-03-23T14:24:24;9.20;99.90
3275;DHT22;1649;53.672;10.064;2023-03-23T14:27:01;9.20;99.90
3275;DHT22;1649;53.672;10.064;2023-03-23T14:29:27;9.20;99.90
3275;DHT22;1649;53.672;10.064;2023-03-23T14:31:56;9.30;99.90
3275;DHT22;1649;53.672;10.064;2023-03-23T14:34:24;9.50;99.90
3275;DHT22;1649;53.672;10.064;2023-03-23T14:36:52;9.90;99.90
3275;DHT22;1649;53.672;10.064;2023-03-23T14:39:32;10.30;99.90
3275;DHT22;1649;53.672;10.064;2023-03-23T14:42:09;10.60;99.90
3275;DHT22;1649;53.672;10.064;2023-03-23T14:44:40;10.70;99.90
3275;DHT22;1649;53.672;10.064;2023-03-23T14:47:13;10.80;99.90
3275;DHT22;1649;53.672;10.064;2023-03-23T14:49:42;11.00;99.90
3275;DHT22;1649;53.672;10.064;2023-03-23T14:52:18;11.10;99.90
3275;DHT22;1649;53.672;10.064;2023-03-23T14:54:45;11.20;99.90
3275;DHT22;1649;53.672;10.064;2023-03-23T14:57:16;11.40;99.90
3275;DHT22;1649;53.672;10.064;2023-03-23T14:59:43;11.50;99.90
3275;DHT22;1649;53.672;10.064;2023-03-23T15:02:35;11.60;99.90
3275;DHT22;1649;53.672;10.064;2023-03-23T15:05:11;11.60;99.90
3275;DHT22;1649;53.672;10.064;2023-03-23T15:07:40;11.70;99.90
3275;DHT22;1649;53.672;10.064;2023-03-23T15:10:07;11.70;99.90
3275;DHT22;1649;53.672;10.064;2023-03-23T15:12:34;11.70;99.90
3275;DHT22;1649;53.672;10.064;2023-03-23T15:15:05;11.70;99.90
3275;DHT22;1649;53.672;10.064;2023-03-23T15:17:35;11.60;99.90
3275;DHT22;1649;53.672;10.064;2023-03-23T15:20:21;11.60;99.90
3275;DHT22;1649;53.672;10.064;2023-03-23T15:22:47;11.50;99.90
3275;DHT22;1649;53.672;10.064;2023-03-23T15:25:32;11.50;99.90
3275;DHT22;1649;53.672;10.064;2023-03-23T15:28:14;11.50;99.90
3275;DHT22;1649;53.672;10.064;2023-03-23T15:30:50;11.50;99.90
3275;DHT22;1649;53.672;10.064;2023-03-23T15:33:15;11.50;99.90
3275;DHT22;1649;53.672;10.064;2023-03-23T15:35:47;11.60;99.90
3275;DHT22;1649;53.672;10.064;2023-03-23T15:38:33;11.60;99.90
3275;DHT22;1649;53.672;10.064;2023-03-23T15:41:01;11.60;99.90
3275;DHT22;1649;53.672;10.064;2023-03-23T15:43:31;11.60;99.90
3275;DHT22;1649;53.672;10.064;2023-03-23T15:48:50;11.00;99.90
3275;DHT22;1649;53.672;10.064;2023-03-23T15:51:17;10.80;99.90
3275;DHT22;1649;53.672;10.064;2023-03-23T15:53:44;10.60;99.90
3275;DHT22;1649;53.672;10.064;2023-03-23T15:56:12;10.50;99.90
3275;DHT22;1649;53.672;10.064;2023-03-23T15:58:39;10.50;99.90
3275;DHT22;1649;53.672;10.064;2023-03-23T16:01:10;10.40;99.90
3275;DHT22;1649;53.672;10.064;2023-03-23T16:03:44;10.40;99.90
3275;DHT22;1649;53.672;10.064;2023-03-23T16:06:12;10.30;99.90
3275;DHT22;1649;53.672;10.064;2023-03-23T16:08:38;10.20;99.90
3275;DHT22;1649;53.672;10.064;2023-03-23T16:11:10;10.30;99.90
3275;DHT22;1649;53.672;10.064;2023-03-23T16:13:36;10.30;99.90
3275;DHT22;1649;53.672;10.064;2023-03-23T16:16:02;10.30;99.90
3275;DHT22;1649;53.672;10.064;2023-03-23T16:18:29;10.30;99.90
3275;DHT22;1649;53.672;10.064;2023-03-23T16:20:56;10.20;99.90
3275;DHT22;1649;53.672;10.064;2023-03-23T16:23:21;10.20;99.90
3275;DHT22;1649;53.672;10.064;2023-03-23T16:25:47;10.20;99.90
3275;DHT22;1649;53.672;10.064;2023-03-23T16:28:14;10.20;99.90
3275;DHT22;1649;53.672;10.064;2023-03-23T16:30:41;10.20;99.90
3275;DHT22;1649;53.672;10.064;2023-03-23T16:33:07;10.20;99.90
3275;DHT22;1649;53.672;10.064;2023-03-23T16:35:34;10.10;99.90
3275;DHT22;1649;53.672;10.064;2023-03-23T16:37:59;10.10;99.90
3275;DHT22;1649;53.672;10.064;2023-03-23T16:40:25;10.00;99.90
3275;DHT22;1649;53.672;10.064;2023-03-23T16:42:51;9.90;99.90
3275;DHT22;1649;53.672;10.064;2023-03-23T16:45:18;9.80;99.90
3275;DHT22;1649;53.672;10.064;2023-03-23T16:47:44;9.70;99.90
3275;DHT22;1649;53.672;10.064;2023-03-23T16:50:11;9.70;99.90
3275;DHT22;1649;53.672;10.064;2023-03-23T16:52:38;9.60;99.90
3275;DHT22;1649;53.672;10.064;2023-03-23T16:55:05;9.60;99.90
3275;DHT22;1649;53.672;10.064;2023-03-23T16:57:32;9.60;99.90
3275;DHT22;1649;53.672;10.064;2023-03-23T16:59:59;9.60;99.90
3275;DHT22;1649;53.672;10.064;2023-03-23T17:02:25;9.60;99.90
3275;DHT22;1649;53.672;10.064;2023-03-23T17:04:51;9.60;99.90
3275;DHT22;1649;53.672;10.064;2023-03-23T17:07:16;9.50;99.90
3275;DHT22;1649;53.672;10.064;2023-03-23T17:09:42;9.50;99.90
3275;DHT22;1649;53.672;10.064;2023-03-23T17:12:08;9.40;99.90
3275;DHT22;1649;53.672;10.064;2023-03-23T17:14:34;9.40;99.90
3275;DHT22;1649;53.672;10.064;2023-03-23T17:16:59;9.50;99.90
3275;DHT22;1649;53.672;10.064;2023-03-23T17:19:25;9.60;99.90
3275;DHT22;1649;53.672;10.064;2023-03-23T17:21:50;9.70;99.90
3275;DHT22;1649;53.672;10.064;2023-03-23T17:24:16;9.70;99.90
3275;DHT22;1649;53.672;10.064;2023-03-23T17:26:42;9.80;99.90
3275;DHT22;1649;53.672;10.064;2023-03-23T17:29:08;9.80;99.90
3275;DHT22;1649;53.672;10.064;2023-03-23T17:31:33;9.80;99.90
3275;DHT22;1649;53.672;10.064;2023-03-23T17:33:59;9.80;99.90
3275;DHT22;1649;53.672;10.064;2023-03-23T17:36:25;9.80;99.90
3275;DHT22;1649;53.672;10.064;2023-03-23T17:38:50;9.80;99.90
3275;DHT22;1649;53.672;10.064;2023-03-23T17:41:16;9.80;99.90
3275;DHT22;1649;53.672;10.064;2023-03-23T17:43:41;9.70;99.90